createdAt,value
2018-11-23T00:01:35.709Z,16.60
2018-11-23T00:04:03.545Z,16.60
2018-11-23T00:06:31.379Z,16.60
2018-11-23T00:08:59.236Z,16.60
2018-11-23T00:11:27.076Z,16.60
2018-11-23T00:13:54.918Z,16.60
2018-11-23T00:16:23.317Z,16.60
2018-11-23T00:18:51.251Z,16.60
2018-11-23T00:21:19.096Z,16.60
2018-11-23T00:23:47.973Z,16.60
2018-11-23T00:26:16.223Z,16.60
2018-11-23T00:28:45.077Z,16.60
2018-11-23T00:31:12.937Z,16.60
2018-11-23T00:33:40.772Z,16.60
2018-11-23T00:36:09.644Z,16.60
2018-11-23T00:38:37.476Z,16.70
2018-11-23T00:41:05.445Z,16.70
2018-11-23T00:43:34.280Z,16.80
2018-11-23T00:46:02.155Z,16.80
2018-11-23T00:48:29.965Z,16.80
2018-11-23T00:50:58.811Z,16.80
2018-11-23T00:53:26.645Z,16.80
2018-11-23T00:55:54.479Z,16.80
2018-11-23T00:58:23.218Z,16.80
2018-11-23T01:00:51.985Z,16.80
2018-11-23T01:03:20.730Z,16.70
2018-11-23T01:05:48.608Z,16.70
2018-11-23T01:08:17.244Z,16.70
2018-11-23T01:10:46.650Z,16.70
2018-11-23T01:13:16.066Z,16.70
2018-11-23T01:15:43.922Z,16.70
2018-11-23T01:18:12.819Z,16.70
2018-11-23T01:20:41.661Z,16.70
2018-11-23T01:23:10.388Z,16.70
2018-11-23T01:25:39.110Z,16.70
2018-11-23T01:28:06.926Z,16.70
2018-11-23T01:30:35.639Z,16.70
2018-11-23T01:33:03.477Z,16.70
2018-11-23T01:35:31.307Z,16.70
2018-11-23T01:37:59.192Z,16.70
2018-11-23T01:40:29.510Z,16.70
2018-11-23T01:42:57.805Z,16.70
2018-11-23T01:45:25.761Z,16.70
2018-11-23T01:47:53.710Z,16.70
2018-11-23T01:50:23.067Z,16.70
2018-11-23T01:52:51.455Z,16.70
2018-11-23T01:55:20.179Z,16.60
2018-11-23T01:57:49.054Z,16.60
2018-11-23T02:00:19.999Z,16.60
2018-11-23T02:02:48.477Z,16.60
2018-11-23T02:05:16.428Z,16.60
2018-11-23T02:07:45.805Z,16.60
2018-11-23T02:10:16.625Z,16.60
2018-11-23T02:12:46.081Z,16.60
2018-11-23T02:15:16.671Z,16.60
2018-11-23T02:17:46.620Z,16.60
2018-11-23T02:20:16.910Z,16.60
2018-11-23T02:22:45.218Z,16.60
2018-11-23T02:25:13.054Z,16.70
2018-11-23T02:27:41.770Z,16.60
2018-11-23T02:30:12.368Z,16.60
2018-11-23T02:32:40.349Z,16.60
2018-11-23T02:35:09.081Z,16.60
2018-11-23T02:37:36.944Z,16.60
2018-11-23T02:40:06.263Z,16.60
2018-11-23T02:42:35.050Z,16.60
2018-11-23T02:45:03.792Z,16.60
2018-11-23T02:47:32.663Z,16.60
2018-11-23T02:50:01.383Z,16.70
2018-11-23T02:52:29.263Z,16.80
2018-11-23T02:54:57.996Z,16.80
2018-11-23T02:57:25.970Z,16.80
2018-11-23T02:59:53.802Z,16.80
2018-11-23T03:02:22.651Z,16.80
2018-11-23T03:04:51.326Z,16.80
2018-11-23T03:07:19.170Z,16.80
2018-11-23T03:09:48.923Z,16.80
2018-11-23T03:12:17.617Z,16.80
2018-11-23T03:14:46.787Z,16.80
2018-11-23T03:20:28.798Z,16.70
2018-11-23T03:22:57.759Z,16.70
2018-11-23T03:25:26.514Z,16.70
2018-11-23T03:27:54.785Z,16.70
2018-11-23T03:30:23.632Z,16.70
2018-11-23T03:32:53.177Z,16.70
2018-11-23T03:35:22.700Z,16.70
2018-11-23T03:37:50.736Z,16.70
2018-11-23T03:40:19.626Z,16.70
2018-11-23T03:43:26.365Z,16.70
2018-11-23T03:45:54.242Z,16.70
2018-11-23T03:48:23.065Z,16.70
2018-11-23T03:50:51.823Z,16.70
2018-11-23T03:56:09.797Z,16.70
2018-11-23T03:58:37.669Z,16.70
2018-11-23T04:01:06.431Z,16.70
2018-11-23T04:03:35.169Z,16.70
2018-11-23T04:06:03.885Z,16.70
2018-11-23T04:08:31.720Z,16.60
2018-11-23T04:11:00.453Z,16.70
2018-11-23T04:13:28.354Z,16.70
2018-11-23T04:15:56.343Z,16.70
2018-11-23T04:18:25.242Z,16.70
2018-11-23T04:21:00.759Z,16.70
2018-11-23T04:23:30.621Z,16.60
2018-11-23T04:25:59.470Z,16.60
2018-11-23T04:28:28.263Z,16.60
2018-11-23T04:30:56.386Z,16.60
2018-11-23T04:33:25.836Z,16.60
2018-11-23T04:35:54.781Z,16.60
2018-11-23T04:38:23.693Z,16.60
2018-11-23T04:40:51.584Z,16.60
2018-11-23T04:43:19.450Z,16.60
2018-11-23T04:45:48.355Z,16.60
2018-11-23T04:48:17.318Z,16.60
2018-11-23T04:50:46.834Z,16.70
2018-11-23T04:53:16.104Z,16.60
2018-11-23T04:55:45.189Z,16.60
2018-11-23T04:58:13.009Z,16.70
2018-11-23T05:00:41.757Z,16.70
2018-11-23T05:03:10.494Z,16.80
2018-11-23T05:05:39.424Z,16.80
2018-11-23T05:08:08.394Z,16.80
2018-11-23T05:10:36.167Z,16.80
2018-11-23T05:13:04.965Z,16.80
2018-11-23T05:15:33.663Z,16.80
2018-11-23T05:18:02.549Z,16.80
2018-11-23T05:20:30.369Z,16.80
2018-11-23T05:22:59.109Z,16.80
2018-11-23T05:25:27.368Z,16.80
2018-11-23T05:27:55.240Z,16.80
2018-11-23T05:30:23.124Z,16.80
2018-11-23T05:32:51.882Z,16.80
2018-11-23T05:35:19.887Z,16.80
2018-11-23T05:37:48.292Z,16.80
2018-11-23T05:40:17.426Z,16.80
2018-11-23T05:42:46.183Z,16.70
2018-11-23T05:45:16.122Z,16.70
2018-11-23T05:47:44.121Z,16.70
2018-11-23T05:50:26.968Z,16.70
2018-11-23T05:52:54.813Z,16.70
2018-11-23T05:55:22.659Z,16.70
2018-11-23T05:57:50.896Z,16.70
2018-11-23T06:00:26.181Z,16.70
2018-11-23T06:02:54.039Z,16.70
2018-11-23T06:05:21.872Z,16.60
2018-11-23T06:07:49.706Z,16.70
2018-11-23T06:10:18.817Z,16.70
2018-11-23T06:12:47.510Z,16.70
2018-11-23T06:15:17.483Z,16.70
2018-11-23T06:17:47.128Z,16.70
2018-11-23T06:20:17.427Z,16.70
2018-11-23T06:22:46.631Z,16.70
2018-11-23T06:25:17.561Z,16.70
2018-11-23T06:27:47.312Z,16.70
2018-11-23T06:30:15.870Z,16.70
2018-11-23T06:32:49.550Z,16.70
2018-11-23T06:35:17.472Z,16.70
2018-11-23T06:37:46.743Z,16.70
2018-11-23T06:40:15.457Z,16.70
2018-11-23T06:42:43.260Z,16.70
2018-11-23T06:45:12.069Z,16.70
2018-11-23T06:47:40.093Z,16.80
2018-11-23T06:50:09.531Z,16.90
2018-11-23T06:52:38.528Z,16.90
2018-11-23T06:55:07.535Z,16.90
2018-11-23T06:57:35.419Z,16.90
2018-11-23T07:00:03.280Z,16.90
2018-11-23T07:02:31.116Z,16.90
2018-11-23T07:04:58.939Z,16.90
2018-11-23T07:07:27.731Z,16.90
2018-11-23T07:09:55.699Z,16.90
2018-11-23T07:12:23.529Z,16.90
2018-11-23T07:14:52.153Z,16.90
2018-11-23T07:17:20.995Z,16.90
2018-11-23T07:19:49.851Z,16.80
2018-11-23T07:22:18.582Z,16.90
2018-11-23T07:24:47.006Z,16.90
2018-11-23T07:27:15.309Z,16.90
2018-11-23T07:29:43.143Z,16.80
2018-11-23T07:32:12.012Z,16.80
2018-11-23T07:34:40.762Z,16.80
2018-11-23T07:37:08.628Z,16.80
2018-11-23T07:39:41.991Z,16.80
2018-11-23T07:42:17.881Z,16.80
2018-11-23T07:44:47.378Z,16.80
2018-11-23T07:47:16.421Z,16.70
2018-11-23T07:49:44.369Z,16.70
2018-11-23T07:52:13.218Z,16.70
2018-11-23T07:54:41.958Z,16.70
2018-11-23T07:57:10.282Z,16.70
2018-11-23T07:59:38.219Z,16.70
2018-11-23T08:02:06.545Z,16.70
2018-11-23T08:04:34.451Z,16.70
2018-11-23T08:07:02.299Z,16.70
2018-11-23T08:09:30.126Z,16.70
2018-11-23T08:11:58.051Z,16.70
2018-11-23T08:14:25.894Z,16.70
2018-11-23T08:16:54.742Z,16.70
2018-11-23T08:19:22.600Z,16.60
2018-11-23T08:21:50.441Z,16.60
2018-11-23T08:24:18.375Z,16.60
2018-11-23T08:26:47.480Z,16.60
2018-11-23T08:29:17.058Z,16.60
2018-11-23T08:31:44.974Z,16.60
2018-11-23T08:34:13.820Z,16.70
2018-11-23T08:36:41.728Z,16.70
2018-11-23T08:39:11.195Z,16.80
2018-11-23T08:41:39.567Z,16.80
2018-11-23T08:44:07.748Z,16.80
2018-11-23T08:46:36.606Z,16.80
2018-11-23T08:49:05.397Z,16.80
2018-11-23T08:51:34.334Z,16.80
2018-11-23T08:54:03.181Z,16.80
2018-11-23T08:56:31.113Z,16.80
2018-11-23T08:58:59.948Z,16.80
2018-11-23T09:01:28.670Z,16.80
2018-11-23T09:03:56.497Z,16.80
2018-11-23T09:06:24.303Z,16.70
2018-11-23T09:08:52.679Z,16.70
2018-11-23T09:11:20.545Z,16.70
2018-11-23T09:13:49.363Z,16.70
2018-11-23T09:16:17.562Z,16.70
2018-11-23T09:18:46.022Z,16.70
2018-11-23T09:21:14.052Z,16.70
2018-11-23T09:23:41.882Z,16.70
2018-11-23T09:26:10.804Z,16.70
2018-11-23T09:28:38.679Z,16.80
2018-11-23T09:31:06.556Z,16.80
2018-11-23T09:33:34.422Z,16.80
2018-11-23T09:36:02.325Z,16.80
2018-11-23T09:38:30.199Z,16.80
2018-11-23T09:40:58.060Z,16.80
2018-11-23T09:43:26.077Z,16.80
2018-11-23T09:45:54.047Z,16.80
2018-11-23T09:48:21.924Z,16.90
2018-11-23T09:50:50.663Z,16.90
2018-11-23T09:53:18.534Z,16.90
2018-11-23T09:55:47.789Z,16.90
2018-11-23T09:58:16.282Z,16.90
2018-11-23T10:00:44.253Z,16.90
2018-11-23T10:03:12.172Z,16.90
2018-11-23T10:05:41.150Z,16.90
2018-11-23T10:08:09.045Z,16.90
2018-11-23T10:10:37.542Z,16.90
2018-11-23T10:13:05.583Z,16.80
2018-11-23T10:15:33.883Z,16.80
2018-11-23T10:18:02.353Z,16.80
2018-11-23T10:20:31.572Z,16.80
2018-11-23T10:22:59.449Z,16.80
2018-11-23T10:25:29.578Z,16.80
2018-11-23T10:27:57.639Z,16.80
2018-11-23T10:30:26.885Z,16.80
2018-11-23T10:32:56.104Z,16.80
2018-11-23T10:35:24.134Z,16.80
2018-11-23T10:37:53.555Z,16.80
2018-11-23T10:40:22.718Z,16.80
2018-11-23T10:42:50.650Z,16.80
2018-11-23T10:45:20.039Z,16.80
2018-11-23T10:47:48.390Z,16.80
2018-11-23T10:50:18.654Z,16.80
2018-11-23T10:52:47.134Z,16.80
2018-11-23T10:55:16.662Z,16.80
2018-11-23T10:57:47.265Z,16.80
2018-11-23T11:00:21.375Z,16.80
2018-11-23T11:02:55.151Z,16.80
2018-11-23T11:05:29.077Z,16.80
2018-11-23T11:07:58.523Z,16.80
2018-11-23T11:10:26.448Z,16.80
2018-11-23T11:12:55.342Z,16.80
2018-11-23T11:15:23.460Z,16.80
2018-11-23T11:17:51.525Z,16.80
2018-11-23T11:20:19.845Z,16.80
2018-11-23T11:22:48.616Z,16.80
2018-11-23T11:25:17.341Z,16.80
2018-11-23T11:27:46.144Z,16.80
2018-11-23T11:30:16.342Z,16.90
2018-11-23T11:32:45.298Z,16.90
2018-11-23T11:35:13.753Z,17.00
2018-11-23T11:37:42.082Z,17.00
2018-11-23T11:40:11.444Z,17.00
2018-11-23T11:42:40.704Z,17.00
2018-11-23T11:45:10.880Z,17.00
2018-11-23T11:47:38.920Z,17.00
2018-11-23T11:50:08.187Z,17.00
2018-11-23T11:52:58.437Z,17.00
2018-11-23T11:55:26.385Z,17.00
2018-11-23T11:57:54.406Z,16.90
2018-11-23T12:00:24.433Z,16.90
2018-11-23T12:02:52.700Z,16.90
2018-11-23T12:05:20.532Z,16.90
2018-11-23T12:07:48.434Z,16.90
2018-11-23T12:10:18.989Z,16.90
2018-11-23T12:12:47.330Z,16.90
2018-11-23T12:15:16.360Z,16.90
2018-11-23T12:17:45.874Z,16.90
2018-11-23T12:20:16.293Z,16.90
2018-11-23T12:22:45.246Z,16.90
2018-11-23T12:25:13.158Z,16.90
2018-11-23T12:27:41.942Z,16.80
2018-11-23T12:30:12.340Z,16.90
2018-11-23T12:32:40.694Z,16.90
2018-11-23T12:35:09.500Z,16.90
2018-11-23T12:37:37.462Z,16.90
2018-11-23T12:40:06.004Z,16.80
2018-11-23T12:42:33.980Z,16.80
2018-11-23T12:45:02.840Z,16.80
2018-11-23T12:47:30.736Z,16.80
2018-11-23T12:49:58.579Z,16.80
2018-11-23T12:52:26.457Z,16.80
2018-11-23T12:54:55.437Z,16.90
2018-11-23T12:57:23.281Z,16.50
2018-11-23T12:59:52.031Z,16.60
2018-11-23T13:02:19.926Z,16.80
2018-11-23T13:04:47.833Z,16.90
2018-11-23T13:07:17.141Z,17.00
2018-11-23T13:09:44.999Z,17.10
2018-11-23T13:12:12.844Z,17.20
2018-11-23T13:14:40.670Z,17.10
2018-11-23T13:17:09.399Z,17.10
2018-11-23T13:19:37.229Z,17.10
2018-11-23T13:22:05.107Z,17.00
2018-11-23T13:24:33.983Z,17.10
2018-11-23T13:27:01.875Z,17.00
2018-11-23T13:29:30.736Z,17.00
2018-11-23T13:32:00.218Z,16.90
2018-11-23T13:34:27.339Z,16.90
2018-11-23T13:36:55.144Z,16.90
2018-11-23T13:39:22.971Z,16.90
2018-11-23T13:41:51.061Z,16.90
2018-11-23T13:44:19.782Z,16.90
2018-11-23T13:46:47.658Z,16.80
2018-11-23T13:49:17.404Z,16.80
2018-11-23T13:51:46.764Z,16.70
2018-11-23T13:54:14.594Z,16.50
2018-11-23T13:56:43.427Z,16.30
2018-11-23T13:59:12.115Z,16.20
2018-11-23T14:01:39.957Z,16.20
2018-11-23T14:04:07.795Z,16.30
2018-11-23T14:06:35.656Z,16.30
2018-11-23T14:09:03.873Z,16.40
2018-11-23T14:11:32.712Z,16.50
2018-11-23T14:14:01.421Z,16.60
2018-11-23T14:16:29.402Z,16.60
2018-11-23T14:18:57.538Z,16.60
2018-11-23T14:21:25.562Z,16.60
2018-11-23T14:23:53.408Z,16.50
2018-11-23T14:26:21.777Z,16.50
2018-11-23T14:28:49.638Z,16.60
2018-11-23T14:31:17.517Z,16.60
2018-11-23T14:33:46.291Z,16.70
2018-11-23T14:36:16.001Z,16.70
2018-11-23T14:38:43.829Z,16.80
2018-11-23T14:41:11.684Z,16.80
2018-11-23T14:43:39.880Z,16.80
2018-11-23T14:46:07.724Z,16.80
2018-11-23T14:48:35.606Z,16.80
2018-11-23T14:51:04.483Z,16.90
2018-11-23T14:53:33.373Z,17.00
2018-11-23T14:56:02.083Z,17.00
2018-11-23T14:58:29.923Z,17.00
2018-11-23T15:00:57.745Z,17.00
2018-11-23T15:03:25.592Z,17.00
2018-11-23T15:05:54.529Z,17.00
2018-11-23T15:08:22.379Z,17.00
2018-11-23T15:10:50.260Z,17.00
2018-11-23T15:13:18.147Z,17.00
2018-11-23T15:15:47.097Z,17.00
2018-11-23T15:18:16.048Z,17.00
2018-11-23T15:20:45.196Z,17.00
2018-11-23T15:23:15.202Z,17.00
2018-11-23T15:25:43.165Z,17.00
2018-11-23T15:28:11.465Z,17.00
2018-11-23T15:30:40.303Z,17.00
2018-11-23T15:33:09.102Z,16.90
2018-11-23T15:35:38.388Z,16.90
2018-11-23T15:38:10.296Z,16.90
2018-11-23T15:40:36.291Z,16.90
2018-11-23T15:43:06.509Z,16.90
2018-11-23T15:45:35.142Z,16.90
2018-11-23T15:48:03.983Z,16.90
2018-11-23T15:50:36.047Z,16.90
2018-11-23T15:53:05.462Z,16.90
2018-11-23T15:55:34.848Z,16.90
2018-11-23T15:58:05.212Z,16.90
2018-11-23T16:00:35.309Z,16.90
2018-11-23T16:03:04.588Z,16.90
2018-11-23T16:05:33.323Z,16.90
2018-11-23T16:08:02.259Z,16.90
2018-11-23T16:10:33.277Z,16.90
2018-11-23T16:13:02.239Z,16.90
2018-11-23T16:15:30.579Z,16.90
2018-11-23T16:17:58.839Z,17.00
2018-11-23T16:20:28.619Z,17.10
2018-11-23T16:22:57.953Z,17.10
2018-11-23T16:25:26.487Z,17.10
2018-11-23T16:27:57.468Z,17.10
2018-11-23T16:30:28.764Z,17.10
2018-11-23T16:32:57.668Z,17.10
2018-11-23T16:35:31.198Z,17.10
2018-11-23T16:38:01.853Z,17.10
2018-11-23T16:40:31.088Z,17.10
2018-11-23T16:42:59.838Z,17.10
2018-11-23T16:45:30.103Z,17.10
2018-11-23T16:47:59.202Z,17.10
2018-11-23T16:50:27.512Z,17.10
2018-11-23T16:52:57.710Z,17.10
2018-11-23T16:55:25.853Z,17.00
2018-11-23T16:57:56.505Z,17.00
2018-11-23T17:00:26.626Z,17.00
2018-11-23T17:02:55.744Z,17.00
2018-11-23T17:05:27.080Z,17.00
2018-11-23T17:07:56.146Z,17.00
2018-11-23T17:10:25.733Z,17.00
2018-11-23T17:12:54.299Z,17.00
2018-11-23T17:15:24.787Z,17.00
2018-11-23T17:17:52.954Z,17.00
2018-11-23T17:20:23.328Z,17.00
2018-11-23T17:22:52.741Z,17.00
2018-11-23T17:25:21.622Z,17.00
2018-11-23T17:27:51.362Z,17.10
2018-11-23T17:30:21.663Z,17.00
2018-11-23T17:32:49.638Z,17.00
2018-11-23T17:35:18.359Z,17.00
2018-11-23T17:37:47.031Z,17.00
2018-11-23T17:40:17.453Z,17.00
2018-11-23T17:42:47.597Z,17.00
2018-11-23T17:45:19.629Z,17.00
2018-11-23T17:47:47.683Z,17.00
2018-11-23T17:50:19.460Z,17.00
2018-11-23T17:52:47.718Z,17.10
2018-11-23T17:55:15.992Z,17.20
2018-11-23T17:57:45.657Z,17.30
2018-11-23T18:00:16.788Z,17.30
2018-11-23T18:02:46.506Z,17.30
2018-11-23T18:05:15.619Z,17.30
2018-11-23T18:07:43.533Z,17.20
2018-11-23T18:10:15.826Z,17.20
2018-11-23T18:12:44.039Z,17.20
2018-11-23T18:15:16.938Z,17.20
2018-11-23T18:17:46.042Z,17.20
2018-11-23T18:20:15.625Z,17.20
2018-11-23T18:22:43.956Z,17.20
2018-11-23T18:25:14.476Z,17.20
2018-11-23T18:27:43.184Z,17.20
2018-11-23T18:30:11.405Z,17.20
2018-11-23T18:32:39.466Z,17.20
2018-11-23T18:35:09.394Z,17.20
2018-11-23T18:37:37.441Z,17.20
2018-11-23T18:40:11.044Z,17.20
2018-11-23T18:42:39.957Z,17.20
2018-11-23T18:45:10.441Z,17.20
2018-11-23T18:47:39.858Z,17.20
2018-11-23T18:50:08.610Z,17.20
2018-11-23T18:52:36.616Z,17.20
2018-11-23T18:55:04.450Z,17.20
2018-11-23T18:57:33.364Z,17.20
2018-11-23T19:00:02.751Z,17.10
2018-11-23T19:02:32.017Z,17.10
2018-11-23T19:05:03.172Z,17.10
2018-11-23T19:07:32.424Z,17.10
2018-11-23T19:10:03.420Z,17.10
2018-11-23T19:12:31.824Z,17.10
2018-11-23T19:15:00.051Z,17.10
2018-11-23T19:17:28.058Z,17.10
2018-11-23T19:19:57.231Z,17.10
2018-11-23T19:22:28.556Z,17.00
2018-11-23T19:24:57.339Z,17.00
2018-11-23T19:27:26.510Z,17.00
2018-11-23T19:29:55.460Z,17.10
2018-11-23T19:32:25.530Z,17.10
2018-11-23T19:34:53.428Z,17.20
2018-11-23T19:37:21.386Z,17.30
2018-11-23T19:39:49.318Z,17.30
2018-11-23T19:42:17.834Z,17.30
2018-11-23T19:44:46.377Z,17.30
2018-11-23T19:47:14.536Z,17.30
2018-11-23T19:49:43.479Z,17.30
2018-11-23T19:52:12.447Z,17.30
2018-11-23T19:54:40.457Z,17.30
2018-11-23T19:57:08.459Z,17.30
2018-11-23T19:59:36.314Z,17.30
2018-11-23T20:02:05.035Z,17.30
2018-11-23T20:04:33.845Z,17.30
2018-11-23T20:07:01.962Z,17.30
2018-11-23T20:09:29.895Z,17.20
2018-11-23T20:11:57.874Z,17.20
2018-11-23T20:14:26.826Z,17.20
2018-11-23T20:16:54.903Z,17.20
2018-11-23T20:19:22.785Z,17.20
2018-11-23T20:21:50.651Z,17.20
2018-11-23T20:24:18.489Z,17.20
2018-11-23T20:26:47.724Z,17.20
2018-11-23T20:29:16.619Z,17.20
2018-11-23T20:31:46.386Z,17.20
2018-11-23T20:34:15.855Z,17.20
2018-11-23T20:36:43.708Z,17.20
2018-11-23T20:39:12.547Z,17.20
2018-11-23T20:41:41.320Z,17.10
2018-11-23T20:44:09.202Z,17.10
2018-11-23T20:46:37.076Z,17.10
2018-11-23T20:49:04.955Z,17.10
2018-11-23T20:51:32.835Z,17.10
2018-11-23T20:54:00.702Z,17.10
2018-11-23T20:56:28.578Z,17.10
2018-11-23T20:58:56.408Z,17.10
2018-11-23T21:01:24.241Z,17.10
2018-11-23T21:03:52.075Z,17.10
2018-11-23T21:06:20.024Z,17.10
2018-11-23T21:08:49.114Z,17.10
2018-11-23T21:11:17.930Z,17.10
2018-11-23T21:13:47.363Z,17.10
2018-11-23T21:16:17.118Z,17.10
2018-11-23T21:18:47.374Z,17.10
2018-11-23T21:21:16.502Z,17.10
2018-11-23T21:23:45.623Z,17.10
2018-11-23T21:26:13.487Z,17.10
2018-11-23T21:28:41.443Z,17.10
2018-11-23T21:31:09.280Z,17.10
2018-11-23T21:33:37.123Z,17.10
2018-11-23T21:36:04.996Z,17.00
2018-11-23T21:38:32.845Z,17.10
2018-11-23T21:41:00.678Z,17.10
2018-11-23T21:43:28.640Z,17.10
2018-11-23T21:45:57.394Z,17.20
2018-11-23T21:48:25.369Z,17.20
2018-11-23T21:50:53.222Z,17.20
2018-11-23T21:53:22.072Z,17.20
2018-11-23T21:55:49.909Z,17.20
2018-11-23T21:58:17.740Z,17.20
2018-11-23T22:00:46.906Z,17.10
2018-11-23T22:03:16.302Z,17.10
2018-11-23T22:05:44.257Z,17.10
2018-11-23T22:08:12.108Z,17.10
2018-11-23T22:10:39.935Z,17.10
2018-11-23T22:13:07.932Z,17.10
2018-11-23T22:15:35.784Z,17.10
2018-11-23T22:18:04.637Z,17.10
2018-11-23T22:20:32.485Z,17.10
2018-11-23T22:23:01.406Z,17.10
2018-11-23T22:25:29.397Z,17.10
2018-11-23T22:27:57.235Z,17.10
2018-11-23T22:30:26.114Z,17.10
2018-11-23T22:32:53.983Z,17.00
2018-11-23T22:35:21.903Z,17.00
2018-11-23T22:37:49.879Z,17.00
2018-11-23T22:40:18.356Z,17.00
2018-11-23T22:42:49.849Z,17.00
2018-11-23T22:45:18.343Z,17.00
2018-11-23T22:47:48.077Z,17.00
2018-11-23T22:50:17.370Z,17.00
2018-11-23T22:52:46.073Z,17.00
2018-11-23T22:55:16.069Z,17.00
2018-11-23T22:57:43.988Z,17.00
2018-11-23T23:00:18.964Z,17.00
2018-11-23T23:02:47.009Z,17.00
2018-11-23T23:05:15.291Z,17.00
2018-11-23T23:07:43.127Z,16.90
2018-11-23T23:10:11.137Z,17.00
2018-11-23T23:12:39.060Z,17.00
2018-11-23T23:15:08.113Z,16.90
2018-11-23T23:17:35.944Z,16.90
2018-11-23T23:20:04.184Z,16.90
2018-11-23T23:22:33.022Z,16.90
2018-11-23T23:25:00.866Z,16.90
2018-11-23T23:27:28.705Z,16.90
2018-11-23T23:29:57.471Z,16.90
2018-11-23T23:32:25.296Z,16.90
2018-11-23T23:34:53.127Z,16.90
2018-11-23T23:37:21.821Z,16.90
2018-11-23T23:39:49.640Z,16.90
2018-11-23T23:42:17.470Z,16.90
2018-11-23T23:44:46.022Z,16.80
2018-11-23T23:47:13.846Z,16.90
2018-11-23T23:49:41.688Z,16.90
2018-11-23T23:52:09.510Z,17.00
2018-11-23T23:54:37.361Z,17.00
2018-11-23T23:57:05.227Z,17.10
2018-11-23T23:59:33.049Z,17.10
